Impacts METAR Board
IDs:

KEWR - Newark Intl, NJ, US

Updated at: 1200 UTC 20 May 2018
Potential Impact None Slight Moderate High
Time 20/00Z 20/01Z 20/02Z 20/03Z 20/04Z 20/05Z 20/06Z 20/07Z 20/08Z 20/09Z 20/10Z 20/11Z 20/12Z
Temp56 55 55 56 56 56 56 56 57 57 58 60 68
Dewpt56 55 55 56 56 56 56 56 57 57 58 60 67
Altim30.09 30.08 30.09 30.07 30.07 30.04 30.01 29.99 29.98 29.97 29.96 29.96 29.96
VIS0.5 0.5 0.5 0.5 0.5 0.5 0.25 0.25 0.25 0.5 1 2.5 8
CIG2 2 2 2 2 2 2 2 2 2 3 9 11
CoverOVCOVCOVCOVCOVCOVCOVXOVXOVXOVCOVCBKNOVC
FltCatLIFRLIFRLIFRLIFRLIFRLIFRLIFRLIFRLIFRLIFRLIFRIFRMVFR
WXBRBR-RA BR-RA FGBRFGFGFGFGBRBR-RA BR--
WDir0605030400000000230
WSpd0 4 3 3 3 0 0 0 0 0 0 0 9
WGst-- -- -- -- -- -- -- -- -- -- -- -- --
Raw hourly METARs
KEWR 192351Z 00000KT 1/2SM R04R/5000VP6000FT BR OVC002 13/13 A3009 RMK AO2 SFC VIS 1 RAE2259 SLP189 P0000 60000 T01330133 10139 20128 58019 $
KEWR 200051Z 06004KT 1/2SM R04R/6000VP6000FT BR OVC002 13/13 A3008 RMK AO2 SFC VIS 1 SLP187 T01280128 $
KEWR 200151Z 05003KT 1/2SM R04R/4500VP6000FT -RA BR OVC002 13/13 A3009 RMK AO2 SFC VIS 3/4 RAB42 SLP190 P0000 T01280128 $
KEWR 200251Z 03003KT 1/2SM R04R/4000V5500FT -RA FG OVC002 13/13 A3007 RMK AO2 SLP182 P0002 60002 T01330133 58006 $
KEWR 200351Z 04003KT 1/2SM R04R/P6000FT BR OVC002 13/13 A3007 RMK AO2 SFC VIS 1 RAE08 SLP182 P0000 T01330133 $
KEWR 200451Z 00000KT 1/2SM R04R/5000VP6000FT FG OVC002 13/13 A3004 RMK AO2 SLP172 T01330133 401390106 $
KEWR 200551Z 00000KT 1/4SM R04R/1600V1800FT FG VV002 13/13 A3001 RMK AO2 TWR VIS 1/2 SLP163 60002 T01330133 10133 20128 58019 $
KEWR 200651Z 00000KT 1/4SM R04R/1400V1600FT FG VV002 13/13 A2999 RMK AO2 TWR VIS 1/2 SLP155 T01330133 $
KEWR 200751Z 00000KT 1/4SM R04R/5000VP6000FT FG VV002 14/14 A2998 RMK AO2 SLP151 T01390139 $
KEWR 200851Z 00000KT 1/2SM R04R/P6000FT BR BKN002 OVC006 14/14 A2997 RMK AO2 SFC VIS 1 SLP147 T01390139 56016 $
KEWR 200955Z 00000KT 1SM R04R/P6000FT BR BKN003 OVC009 14/14 A2996 RMK AO2 SFC VIS 2 1/2 T01440144 $
KEWR 201051Z 00000KT 2 1/2SM -RA BR SCT004 BKN009 BKN130 16/16 A2996 RMK AO2 RAB49 SLP145 P0000 T01560156 $
KEWR 201154Z 23009KT 8SM FEW005 OVC011 20/19 A2996 RMK AO2 T02000194 $



Page loaded:  12:00 UTC  |   05:00 AM Pacific  |   06:00 AM Mountain  |   07:00 AM Central  |   08:00 AM Eastern

 

ADVISORIES

FORECASTS

FORECASTS

OBSERVATIONS

USER TOOLS

ABOUT US